Time;durP1;ratioP1;P1;durP2;ratioP2;P2;SDS_P1;SDS_P2;PMS_P1;PMS_P2;Temp;Humidity;BMP_temperature;BMP_pressure;BME280_temperature;BME280_humidity;BME280_pressure;Samples;Min_cycle;Max_cycle;Signal;HPM_P1;HPM_P2
2021/05/07 00:00:01;;;;;;;;;;;;;;;;;;2098093;28;45804;-65
2021/05/07 00:01:04;;;;;;;;;;;;;;;;;;2098208;28;43633;-64
2021/05/07 00:02:05;;;;;;;;;;;;;;;;;;2097866;28;47000;-64
2021/05/07 00:03:06;;;;;;;;;;;;;;;;;;2098635;28;43782;-64
2021/05/07 00:04:08;;;;;;;;;;;;;;;;;;2098884;28;47200;-64
2021/05/07 00:05:09;;;;;;;;;;;;;;;;;;2098299;28;45830;-65
2021/05/07 00:06:11;;;;;;;;;;;;;;;;;;2098120;28;45263;-65
2021/05/07 00:07:12;;;;;;;;;;;;;;;;;;2098273;28;45836;-64
2021/05/07 00:08:12;;;;;;;;;;;;;;;;;;2098128;28;46966;-64
2021/05/07 00:09:13;;;;;;;;;;;;;;;;;;2098318;28;45685;-65
2021/05/07 00:10:14;;;;;;;;;;;;;;;;;;2098053;28;47018;-64
2021/05/07 00:11:18;;;;;;;;;;;;;;;;;;2098111;28;46909;-65
2021/05/07 00:12:19;;;;;;;;;;;;;;;;;;2097972;28;46941;-65
2021/05/07 00:13:21;;;;;;;;;;;;;;;;;;2098531;28;46767;-64
2021/05/07 00:14:22;;;;;;;;;;;;;;;;;;2098203;28;44209;-64
2021/05/07 00:15:22;;;;;;;;;;;;;;;;;;2098234;28;45152;-64
2021/05/07 00:16:23;;;;;;;;;;;;;;;;;;2097720;28;45390;-64
2021/05/07 00:17:24;;;;;;;;;;;;;;;;;;2090191;28;42539;-64
2021/05/07 00:18:25;;;;;;;;;;;;;;;;;;2089685;28;44588;-64
2021/05/07 00:19:26;;;;;;;;;;;;;;;;;;2098243;28;42984;-64
2021/05/07 00:20:27;;;;;;;;;;;;;;;;;;2098827;28;44206;-66
2021/05/07 00:21:28;;;;;;;;;;;;;;;;;;2097956;28;45725;-66
2021/05/07 00:22:29;;;;;;;;;;;;;;;;;;2097935;28;45340;-67
2021/05/07 00:23:34;;;;;;;;;;;;;;;;;;2098216;28;44634;-67
2021/05/07 00:24:34;;;;;;;;;;;;;;;;;;2098013;28;42834;-67
2021/05/07 00:25:35;;;;;;;;;;;;;;;;;;2098093;28;42954;-67
2021/05/07 00:26:36;;;;;;;;;;;;;;;;;;2097886;28;44322;-67
2021/05/07 00:27:37;;;;;;;;;;;;;;;;;;2098199;28;42568;-67
2021/05/07 00:28:38;;;;;;;;;;;;;;;;;;2098105;28;42908;-68
2021/05/07 00:29:39;;;;;;;;;;;;;;;;;;2098493;28;44464;-67
2021/05/07 00:30:40;;;;;;;;;;;;;;;;;;2097918;28;45404;-65
2021/05/07 00:31:41;;;;;;;;;;;;;;;;;;2097881;28;44160;-65
2021/05/07 00:32:42;;;;;;;;;;;;;;;;;;2097974;28;47087;-65
2021/05/07 00:33:43;;;;;;;;;;;;;;;;;;2098128;28;44207;-65
2021/05/07 00:34:44;;;;;;;;;;;;;;;;;;2098237;28;44277;-64
2021/05/07 00:35:45;;;;;;;;;;;;;;;;;;2098204;28;44181;-65
2021/05/07 00:36:46;;;;;;;;;;;;;;;;;;2097988;28;45329;-65
2021/05/07 00:37:47;;;;;;;;;;;;;;;;;;2098199;28;44167;-65
2021/05/07 00:38:48;;;;;;;;;;;;;;;;;;2098442;28;46632;-65
2021/05/07 00:39:49;;;;;;;;;;;;;;;;;;2098794;28;45459;-65
2021/05/07 00:40:50;;;;;;;;;;;;;;;;;;2098782;28;45306;-65
2021/05/07 00:41:51;;;;;;;;;;;;;;;;;;2098357;28;46669;-64
2021/05/07 00:42:52;;;;;;;;;;;;;;;;;;2098694;28;45172;-65
2021/05/07 00:43:53;;;;;;;;;;;;;;;;;;2098074;28;45464;-65
2021/05/07 00:44:54;;;;;;;;;;;;;;;;;;2098035;28;46656;-65
2021/05/07 00:45:55;;;;;;;;;;;;;;;;;;2097885;28;45504;-65
2021/05/07 00:46:57;;;;;;;;;;;;;;;;;;2098550;28;46408;-65
2021/05/07 00:48:11;;;;;;;;;;;;;;;;;;2098031;28;46547;-65
2021/05/07 00:49:13;;;;;;;;;;;;;;;;;;2091482;28;46698;-65
2021/05/07 00:50:14;;;;;;;;;;;;;;;;;;2098125;28;45292;-65
2021/05/07 00:51:15;;;;;;;;;;;;;;;;;;2098528;28;46530;-65
2021/05/07 00:52:16;;;;;;;;;;;;;;;;;;2097640;28;45338;-65
2021/05/07 00:53:18;;;;;;;;;;;;;;;;;;2097911;28;46729;-65
2021/05/07 00:54:19;;;;;;;;;;;;;;;;;;2098054;28;45312;-65
2021/05/07 00:55:20;;;;;;;;;;;;;;;;;;2089683;28;45366;-65
2021/05/07 00:56:21;;;;;;;;;;;;;;;;;;2089822;28;44192;-65
2021/05/07 00:57:22;;;;;;;;;;;;;;;;;;2097903;28;46864;-66
2021/05/07 00:58:24;;;;;;;;;;;;;;;;;;2097839;28;43526;-66
2021/05/07 00:59:24;;;;;;;;;;;;;;;;;;2097957;28;45909;-67
2021/05/07 01:00:26;;;;;;;;;;;;;;;;;;2098738;28;45644;-67
2021/05/07 01:01:30;;;;;;;;;;;;;;;;;;2097804;28;45783;-67
2021/05/07 01:02:32;;;;;;;;;;;;;;;;;;2097667;28;47224;-66
2021/05/07 01:03:33;;;;;;;;;;;;;;;;;;2097905;28;46897;-67
2021/05/07 01:04:34;;;;;;;;;;;;;;;;;;2089644;28;43334;-66
2021/05/07 01:05:35;;;;;;;;;;;;;;;;;;2089583;28;46115;-66
2021/05/07 01:06:36;;;;;;;;;;;;;;;;;;2097752;28;46777;-66
2021/05/07 01:07:37;;;;;;;;;;;;;;;;;;2098224;28;45999;-66
2021/05/07 01:08:38;;;;;;;;;;;;;;;;;;2097758;28;46224;-66
2021/05/07 01:09:40;;;;;;;;;;;;;;;;;;2097941;28;46948;-66
2021/05/07 01:10:41;;;;;;;;;;;;;;;;;;2097252;28;44506;-68
2021/05/07 01:11:42;;;;;;;;;;;;;;;;;;2106345;28;45672;-66
2021/05/07 01:12:43;;;;;;;;;;;;;;;;;;2097595;28;44813;-67
2021/05/07 01:13:44;;;;;;;;;;;;;;;;;;2097866;28;47238;-66
2021/05/07 01:15:04;;;;;;;;;;;;;;;;;;2097857;28;45618;-66
2021/05/07 01:16:06;;;;;;;;;;;;;;;;;;2103627;28;45823;-66
2021/05/07 01:17:07;;;;;;;;;;;;;;;;;;2097836;28;45303;-66
2021/05/07 01:18:09;;;;;;;;;;;;;;;;;;2097800;28;46172;-67
2021/05/07 01:19:13;;;;;;;;;;;;;;;;;;2098051;28;47178;-66
2021/05/07 01:20:25;;;;;;;;;;;;;;;;;;2097889;28;44096;-66
2021/05/07 01:21:26;;;;;;;;;;;;;;;;;;2098547;28;42120;-66
2021/05/07 01:22:27;;;;;;;;;;;;;;;;;;2097906;28;42789;-66
2021/05/07 01:23:28;;;;;;;;;;;;;;;;;;2089510;28;45174;-67
2021/05/07 01:24:29;;;;;;;;;;;;;;;;;;2097963;28;42124;-67
2021/05/07 01:25:35;;;;;;;;;;;;;;;;;;2097687;28;45499;-66
2021/05/07 01:26:39;;;;;;;;;;;;;;;;;;2097742;28;43145;-65
2021/05/07 01:27:42;;;;;;;;;;;;;;;;;;2098424;28;45520;-66
2021/05/07 01:28:43;;;;;;;;;;;;;;;;;;2105843;28;45305;-66
2021/05/07 01:29:44;;;;;;;;;;;;;;;;;;2098493;28;44319;-66
2021/05/07 01:30:45;;;;;;;;;;;;;;;;;;2098366;28;43857;-66
2021/05/07 01:31:47;;;;;;;;;;;;;;;;;;2098272;28;45545;-66
2021/05/07 01:32:48;;;;;;;;;;;;;;;;;;2097817;28;44279;-66
2021/05/07 01:33:49;;;;;;;;;;;;;;;;;;2089473;28;45123;-66
2021/05/07 01:34:50;;;;;;;;;;;;;;;;;;2098061;28;45507;-66
2021/05/07 01:35:51;;;;;;;;;;;;;;;;;;2097915;28;45541;-66
2021/05/07 01:36:52;;;;;;;;;;;;;;;;;;2098511;28;43169;-66
2021/05/07 01:37:55;;;;;;;;;;;;;;;;;;2098350;28;45298;-66
2021/05/07 01:38:56;;;;;;;;;;;;;;;;;;2097732;28;44560;-66
2021/05/07 01:39:57;;;;;;;;;;;;;;;;;;2089371;28;42985;-66
2021/05/07 01:40:58;;;;;;;;;;;;;;;;;;2098410;28;44241;-66
2021/05/07 01:41:59;;;;;;;;;;;;;;;;;;2097466;28;46382;-66
2021/05/07 01:43:00;;;;;;;;;;;;;;;;;;2097677;28;43949;-66
2021/05/07 01:44:01;;;;;;;;;;;;;;;;;;2097505;28;46650;-66
2021/05/07 01:45:04;;;;;;;;;;;;;;;;;;2097695;28;44058;-66
2021/05/07 01:46:05;;;;;;;;;;;;;;;;;;2097587;28;43592;-66
2021/05/07 01:47:05;;;;;;;;;;;;;;;;;;2097600;28;46540;-66
2021/05/07 01:48:07;;;;;;;;;;;;;;;;;;2097562;28;43706;-66
2021/05/07 01:49:08;;;;;;;;;;;;;;;;;;2097600;28;44988;-66
2021/05/07 01:50:10;;;;;;;;;;;;;;;;;;2097590;28;45399;-66
2021/05/07 01:51:11;;;;;;;;;;;;;;;;;;2097589;28;45396;-66
2021/05/07 01:52:12;;;;;;;;;;;;;;;;;;2097341;28;46382;-66
2021/05/07 01:53:13;;;;;;;;;;;;;;;;;;2098183;28;44874;-65
2021/05/07 01:54:14;;;;;;;;;;;;;;;;;;2097926;28;46685;-65
2021/05/07 01:55:20;;;;;;;;;;;;;;;;;;2097612;28;45561;-65
2021/05/07 01:56:21;;;;;;;;;;;;;;;;;;2097197;28;46065;-65
2021/05/07 01:57:27;;;;;;;;;;;;;;;;;;2097607;28;45224;-66
2021/05/07 01:58:28;;;;;;;;;;;;;;;;;;2097432;28;46548;-66
2021/05/07 01:59:28;;;;;;;;;;;;;;;;;;2097566;28;46430;-66
2021/05/07 02:00:30;;;;;;;;;;;;;;;;;;2098001;28;46725;-66
2021/05/07 02:01:30;;;;;;;;;;;;;;;;;;2098015;28;46536;-66
2021/05/07 02:02:31;;;;;;;;;;;;;;;;;;2098158;28;45114;-66
2021/05/07 02:03:32;;;;;;;;;;;;;;;;;;2097540;28;47167;-65
2021/05/07 02:04:33;;;;;;;;;;;;;;;;;;2097370;28;44729;-66
2021/05/07 02:05:34;;;;;;;;;;;;;;;;;;2097378;28;47332;-65
2021/05/07 02:06:35;;;;;;;;;;;;;;;;;;2097326;28;44073;-66
2021/05/07 02:07:36;;;;;;;;;;;;;;;;;;2097509;28;47015;-66
2021/05/07 02:08:37;;;;;;;;;;;;;;;;;;2097243;28;47016;-66
2021/05/07 02:09:38;;;;;;;;;;;;;;;;;;2097578;28;44005;-66
2021/05/07 02:10:39;;;;;;;;;;;;;;;;;;2097340;28;45440;-66
2021/05/07 02:11:41;;;;;;;;;;;;;;;;;;2098076;28;45014;-66
2021/05/07 02:12:42;;;;;;;;;;;;;;;;;;2097386;28;46009;-66
2021/05/07 02:13:43;;;;;;;;;;;;;;;;;;2097562;28;45737;-66
2021/05/07 02:14:44;;;;;;;;;;;;;;;;;;2097829;28;46121;-69
2021/05/07 02:15:45;;;;;;;;;;;;;;;;;;2097507;28;46920;-67
2021/05/07 02:16:46;;;;;;;;;;;;;;;;;;2097259;28;46883;-67
2021/05/07 02:17:47;;;;;;;;;;;;;;;;;;2097481;28;46799;-68
2021/05/07 02:18:48;;;;;;;;;;;;;;;;;;2097377;28;44095;-69
2021/05/07 02:19:50;;;;;;;;;;;;;;;;;;2097432;28;45819;-68
2021/05/07 02:20:54;;;;;;;;;;;;;;;;;;2097448;28;44558;-67
2021/05/07 02:21:55;;;;;;;;;;;;;;;;;;2097288;28;45363;-68
2021/05/07 02:22:57;;;;;;;;;;;;;;;;;;2096304;28;45632;-67
2021/05/07 02:23:58;;;;;;;;;;;;;;;;;;2097392;28;46867;-67
2021/05/07 02:25:00;;;;;;;;;;;;;;;;;;2089558;28;46783;-66
2021/05/07 02:26:01;;;;;;;;;;;;;;;;;;2097251;28;43329;-67
2021/05/07 02:27:03;;;;;;;;;;;;;;;;;;2097435;28;43755;-67
2021/05/07 02:28:04;;;;;;;;;;;;;;;;;;2096174;28;44076;-66
2021/05/07 02:29:05;;;;;;;;;;;;;;;;;;2089142;28;45357;-67
2021/05/07 02:30:07;;;;;;;;;;;;;;;;;;2097400;28;42597;-67
2021/05/07 02:31:08;;;;;;;;;;;;;;;;;;2089672;28;44211;-66
2021/05/07 02:32:09;;;;;;;;;;;;;;;;;;2089463;28;45474;-68
2021/05/07 02:33:10;;;;;;;;;;;;;;;;;;2088928;28;43451;-66
2021/05/07 02:34:11;;;;;;;;;;;;;;;;;;2088308;28;45746;-68
2021/05/07 02:35:12;;;;;;;;;;;;;;;;;;2088989;28;45444;-67
2021/05/07 02:36:13;;;;;;;;;;;;;;;;;;2088831;28;45212;-65
2021/05/07 02:37:14;;;;;;;;;;;;;;;;;;2088456;28;45357;-65
2021/05/07 02:38:15;;;;;;;;;;;;;;;;;;2080799;28;44074;-65
2021/05/07 02:39:16;;;;;;;;;;;;;;;;;;2080814;28;44183;-65
2021/05/07 02:40:17;;;;;;;;;;;;;;;;;;2080553;28;45840;-65
2021/05/07 02:41:18;;;;;;;;;;;;;;;;;;2080772;28;44398;-65
2021/05/07 02:42:19;;;;;;;;;;;;;;;;;;2088654;28;45454;-64
2021/05/07 02:43:20;;;;;;;;;;;;;;;;;;2089624;28;41791;-65
2021/05/07 02:44:21;;;;;;;;;;;;;;;;;;2089554;28;44374;-65
2021/05/07 02:45:22;;;;;;;;;;;;;;;;;;2089524;28;42985;-65
2021/05/07 02:46:23;;;;;;;;;;;;;;;;;;2089003;28;44342;-65
2021/05/07 02:47:24;;;;;;;;;;;;;;;;;;2080741;28;45787;-65
2021/05/07 02:48:25;;;;;;;;;;;;;;;;;;2088963;28;43762;-65
2021/05/07 02:49:26;;;;;;;;;;;;;;;;;;2088932;28;45444;-65
2021/05/07 02:50:27;;;;;;;;;;;;;;;;;;2080753;28;45257;-65
2021/05/07 02:51:29;;;;;;;;;;;;;;;;;;2088774;28;46508;-65
2021/05/07 02:52:30;;;;;;;;;;;;;;;;;;2089809;28;45289;-66
2021/05/07 02:53:31;;;;;;;;;;;;;;;;;;2089889;28;44562;-65
2021/05/07 02:54:33;;;;;;;;;;;;;;;;;;2088898;28;45631;-65
2021/05/07 02:55:34;;;;;;;;;;;;;;;;;;2080931;28;43919;-65
2021/05/07 02:56:34;;;;;;;;;;;;;;;;;;2080433;28;46570;-66
2021/05/07 02:57:36;;;;;;;;;;;;;;;;;;2080775;28;46405;-65
2021/05/07 02:58:36;;;;;;;;;;;;;;;;;;2080672;28;45137;-65
2021/05/07 02:59:37;;;;;;;;;;;;;;;;;;2088990;28;46427;-65
2021/05/07 03:00:38;;;;;;;;;;;;;;;;;;2088843;28;44012;-65
2021/05/07 03:01:39;;;;;;;;;;;;;;;;;;2080618;28;43435;-64
2021/05/07 03:02:40;;;;;;;;;;;;;;;;;;2088733;28;46628;-65
2021/05/07 03:03:41;;;;;;;;;;;;;;;;;;2089870;28;44427;-66
2021/05/07 03:04:42;;;;;;;;;;;;;;;;;;2089211;28;43558;-66
2021/05/07 03:05:43;;;;;;;;;;;;;;;;;;2080436;28;45800;-66
2021/05/07 03:06:44;;;;;;;;;;;;;;;;;;2088684;28;45266;-65
2021/05/07 03:07:45;;;;;;;;;;;;;;;;;;2097490;28;46501;-66
2021/05/07 03:08:45;;;;;;;;;;;;;;;;;;2097073;28;45930;-65
2021/05/07 03:09:46;;;;;;;;;;;;;;;;;;2088883;28;44892;-65
2021/05/07 03:10:47;;;;;;;;;;;;;;;;;;2080564;28;45489;-65
2021/05/07 03:11:48;;;;;;;;;;;;;;;;;;2088673;28;44746;-66
2021/05/07 03:12:49;;;;;;;;;;;;;;;;;;2097003;28;47114;-65
2021/05/07 03:13:50;;;;;;;;;;;;;;;;;;2088837;28;45296;-65
2021/05/07 03:14:51;;;;;;;;;;;;;;;;;;2080745;28;46821;-65
2021/05/07 03:15:52;;;;;;;;;;;;;;;;;;2080132;28;46964;-65
2021/05/07 03:16:53;;;;;;;;;;;;;;;;;;2080608;28;46956;-65
2021/05/07 03:17:55;;;;;;;;;;;;;;;;;;2080637;28;44562;-65
2021/05/07 03:18:56;;;;;;;;;;;;;;;;;;2088850;28;45963;-65
2021/05/07 03:19:57;;;;;;;;;;;;;;;;;;2089362;28;46983;-65
2021/05/07 03:20:58;;;;;;;;;;;;;;;;;;2088888;28;43912;-64
2021/05/07 03:21:59;;;;;;;;;;;;;;;;;;2088680;28;46357;-65
2021/05/07 03:23:00;;;;;;;;;;;;;;;;;;2089322;28;45887;-64
2021/05/07 03:24:01;;;;;;;;;;;;;;;;;;2088686;28;44565;-64
2021/05/07 03:25:02;;;;;;;;;;;;;;;;;;2080562;28;45851;-65
2021/05/07 03:26:03;;;;;;;;;;;;;;;;;;2079626;28;47260;-65
2021/05/07 03:27:04;;;;;;;;;;;;;;;;;;2088761;28;44535;-65
2021/05/07 03:28:05;;;;;;;;;;;;;;;;;;2090672;28;43257;-65
2021/05/07 03:29:07;;;;;;;;;;;;;;;;;;2097099;28;45586;-66
2021/05/07 03:30:08;;;;;;;;;;;;;;;;;;2089435;28;44385;-64
2021/05/07 03:31:09;;;;;;;;;;;;;;;;;;2097135;28;45728;-65
2021/05/07 03:32:10;;;;;;;;;;;;;;;;;;2097193;28;43991;-64
2021/05/07 03:33:11;;;;;;;;;;;;;;;;;;2097048;28;41377;-65
2021/05/07 03:34:14;;;;;;;;;;;;;;;;;;2098311;28;44388;-64
2021/05/07 03:35:15;;;;;;;;;;;;;;;;;;2099089;28;44425;-64
2021/05/07 03:36:16;;;;;;;;;;;;;;;;;;2098055;28;46674;-64
2021/05/07 03:37:17;;;;;;;;;;;;;;;;;;2098468;28;42942;-65
2021/05/07 03:38:18;;;;;;;;;;;;;;;;;;2098394;28;44421;-64
2021/05/07 03:39:19;;;;;;;;;;;;;;;;;;2098494;28;44159;-64
2021/05/07 03:40:20;;;;;;;;;;;;;;;;;;2098862;28;44485;-64
2021/05/07 03:41:21;;;;;;;;;;;;;;;;;;2099109;28;44353;-64
2021/05/07 03:42:22;;;;;;;;;;;;;;;;;;2098424;28;44112;-64
2021/05/07 03:43:24;;;;;;;;;;;;;;;;;;2098456;28;44313;-65
2021/05/07 03:44:24;;;;;;;;;;;;;;;;;;2098425;28;44275;-65
2021/05/07 03:45:25;;;;;;;;;;;;;;;;;;2098444;28;44312;-65
2021/05/07 03:46:26;;;;;;;;;;;;;;;;;;2106453;28;43793;-64
2021/05/07 03:47:27;;;;;;;;;;;;;;;;;;2098362;28;44283;-65
2021/05/07 03:48:28;;;;;;;;;;;;;;;;;;2098336;28;44757;-64
2021/05/07 03:49:30;;;;;;;;;;;;;;;;;;2099088;28;42986;-65
2021/05/07 03:50:31;;;;;;;;;;;;;;;;;;2098444;28;44204;-65
2021/05/07 03:51:32;;;;;;;;;;;;;;;;;;2090340;28;42857;-65
2021/05/07 03:52:32;;;;;;;;;;;;;;;;;;2090093;28;45298;-65
2021/05/07 03:53:33;;;;;;;;;;;;;;;;;;2098437;28;45516;-65
2021/05/07 03:54:34;;;;;;;;;;;;;;;;;;2098265;28;45482;-65
2021/05/07 03:55:35;;;;;;;;;;;;;;;;;;2098496;28;44129;-64
2021/05/07 03:56:36;;;;;;;;;;;;;;;;;;2098110;28;45466;-64
2021/05/07 03:57:37;;;;;;;;;;;;;;;;;;2098380;28;44263;-67
2021/05/07 03:58:38;;;;;;;;;;;;;;;;;;2098285;28;46532;-68
2021/05/07 03:59:39;;;;;;;;;;;;;;;;;;2098322;28;45491;-66
2021/05/07 04:00:40;;;;;;;;;;;;;;;;;;2098259;28;45776;-67
2021/05/07 04:01:41;;;;;;;;;;;;;;;;;;2098168;28;45456;-68
2021/05/07 04:02:44;;;;;;;;;;;;;;;;;;2098758;28;46950;-67
2021/05/07 04:03:45;;;;;;;;;;;;;;;;;;2098269;28;44091;-68
2021/05/07 04:04:46;;;;;;;;;;;;;;;;;;2090164;28;44606;-68
2021/05/07 04:05:51;;;;;;;;;;;;;;;;;;2090019;28;46717;-67
2021/05/07 04:06:52;;;;;;;;;;;;;;;;;;2090420;28;45413;-68
2021/05/07 04:08:38;;;;;;;;;;;;;;;;;;2098222;28;45399;-68
2021/05/07 04:09:18;;;;;;;;;;;;;;;;;;2092383;28;45434;-67
2021/05/07 04:10:21;;;;;;;;;;;;;;;;;;2098331;28;44236;-68
2021/05/07 04:13:42;;;;;;;;;;;;;;;;;;2099269;28;45524;-67
2021/05/07 04:14:43;;;;;;;;;;;;;;;;;;2098214;28;47494;-67
2021/05/07 04:15:44;;;;;;;;;;;;;;;;;;2097953;28;46821;-67
2021/05/07 04:16:45;;;;;;;;;;;;;;;;;;2098188;28;46878;-68
2021/05/07 04:17:46;;;;;;;;;;;;;;;;;;2098510;28;44490;-66
2021/05/07 04:18:47;;;;;;;;;;;;;;;;;;2098211;28;43328;-68
2021/05/07 04:19:48;;;;;;;;;;;;;;;;;;2098123;28;45817;-68
2021/05/07 04:20:48;;;;;;;;;;;;;;;;;;2098237;28;46818;-67
2021/05/07 04:21:49;;;;;;;;;;;;;;;;;;2097882;28;46156;-69
2021/05/07 04:22:50;;;;;;;;;;;;;;;;;;2098180;28;44135;-68
2021/05/07 04:23:51;;;;;;;;;;;;;;;;;;2106364;28;45713;-68
2021/05/07 04:24:52;;;;;;;;;;;;;;;;;;2106786;28;45605;-68
2021/05/07 04:25:53;;;;;;;;;;;;;;;;;;2097671;28;45520;-69
2021/05/07 04:26:54;;;;;;;;;;;;;;;;;;2111100;22;47438;-64
2021/05/07 04:27:55;;;;;;;;;;;;;;;;;;2098653;28;46934;-64
2021/05/07 04:28:56;;;;;;;;;;;;;;;;;;2089653;28;46874;-64
2021/05/07 04:29:57;;;;;;;;;;;;;;;;;;2089547;28;47085;-64
2021/05/07 04:30:58;;;;;;;;;;;;;;;;;;2089761;28;44089;-64
2021/05/07 04:31:59;;;;;;;;;;;;;;;;;;2089569;28;46899;-64
2021/05/07 04:33:00;;;;;;;;;;;;;;;;;;2098154;28;46817;-64
2021/05/07 04:34:01;;;;;;;;;;;;;;;;;;2098113;28;44613;-64
2021/05/07 04:35:02;;;;;;;;;;;;;;;;;;2091775;28;45956;-64
2021/05/07 04:36:04;;;;;;;;;;;;;;;;;;2090134;28;46009;-64
2021/05/07 04:37:05;;;;;;;;;;;;;;;;;;2089770;28;44273;-64
2021/05/07 04:38:06;;;;;;;;;;;;;;;;;;2089632;28;47963;-64
2021/05/07 04:39:08;;;;;;;;;;;;;;;;;;2089940;28;41355;-64
2021/05/07 04:40:09;;;;;;;;;;;;;;;;;;2098026;28;45543;-64
2021/05/07 04:41:10;;;;;;;;;;;;;;;;;;2089936;28;44367;-65
2021/05/07 04:42:15;;;;;;;;;;;;;;;;;;2098696;28;45726;-64
2021/05/07 04:43:16;;;;;;;;;;;;;;;;;;2097764;28;45663;-65
2021/05/07 04:44:17;;;;;;;;;;;;;;;;;;2098678;28;44190;-65
2021/05/07 04:45:18;;;;;;;;;;;;;;;;;;2098672;28;45195;-65
2021/05/07 04:46:19;;;;;;;;;;;;;;;;;;2098029;28;43627;-64
2021/05/07 04:47:20;;;;;;;;;;;;;;;;;;2089385;28;43689;-65
2021/05/07 04:48:21;;;;;;;;;;;;;;;;;;2089679;28;46610;-65
2021/05/07 04:49:22;;;;;;;;;;;;;;;;;;2090382;28;44699;-64
2021/05/07 04:50:23;;;;;;;;;;;;;;;;;;2098161;28;42389;-65
2021/05/07 04:51:24;;;;;;;;;;;;;;;;;;2089411;28;46448;-64
2021/05/07 04:52:25;;;;;;;;;;;;;;;;;;2089636;28;44252;-65
2021/05/07 04:53:26;;;;;;;;;;;;;;;;;;2098004;28;42739;-65
2021/05/07 04:54:27;;;;;;;;;;;;;;;;;;2089642;28;44004;-65
2021/05/07 04:55:28;;;;;;;;;;;;;;;;;;2089525;28;44584;-64
2021/05/07 04:56:29;;;;;;;;;;;;;;;;;;2089926;28;44202;-65
2021/05/07 04:57:30;;;;;;;;;;;;;;;;;;2098314;28;44062;-65
2021/05/07 04:58:31;;;;;;;;;;;;;;;;;;2094330;28;45164;-65
2021/05/07 04:59:32;;;;;;;;;;;;;;;;;;2089671;28;42445;-64
2021/05/07 05:00:33;;;;;;;;;;;;;;;;;;2098345;28;44500;-65
2021/05/07 05:01:34;;;;;;;;;;;;;;;;;;2098265;28;44390;-64
2021/05/07 05:02:35;;;;;;;;;;;;;;;;;;2098550;28;46375;-64
2021/05/07 05:03:36;;;;;;;;;;;;;;;;;;2097684;28;46359;-64
2021/05/07 05:04:37;;;;;;;;;;;;;;;;;;2097896;28;46742;-65
2021/05/07 05:05:38;;;;;;;;;;;;;;;;;;2098257;28;45078;-64
2021/05/07 05:06:39;;;;;;;;;;;;;;;;;;2098494;28;45330;-64
2021/05/07 05:07:49;;;;;;;;;;;;;;;;;;2097932;28;45242;-63
2021/05/07 05:08:50;;;;;;;;;;;;;;;;;;2090750;28;45875;-63
2021/05/07 05:09:51;;;;;;;;;;;;;;;;;;2097787;28;46657;-64
2021/05/07 05:10:55;;;;;;;;;;;;;;;;;;2106648;28;43748;-63
2021/05/07 05:11:56;;;;;;;;;;;;;;;;;;2097489;28;45397;-64
2021/05/07 05:12:57;;;;;;;;;;;;;;;;;;2089594;28;46618;-64
2021/05/07 05:13:58;;;;;;;;;;;;;;;;;;2097879;28;46817;-64
2021/05/07 05:14:59;;;;;;;;;;;;;;;;;;2097860;28;46629;-63
2021/05/07 05:16:00;;;;;;;;;;;;;;;;;;2106079;28;44206;-63
2021/05/07 05:17:01;;;;;;;;;;;;;;;;;;2114510;28;45003;-64
2021/05/07 05:18:02;;;;;;;;;;;;;;;;;;2097770;28;46528;-64
2021/05/07 05:19:03;;;;;;;;;;;;;;;;;;2089787;28;45172;-63
2021/05/07 05:20:05;;;;;;;;;;;;;;;;;;2097889;28;45738;-63
2021/05/07 05:21:07;;;;;;;;;;;;;;;;;;2096099;28;45533;-63
2021/05/07 05:22:12;;;;;;;;;;;;;;;;;;2098345;28;45714;-63
2021/05/07 05:23:13;;;;;;;;;;;;;;;;;;2105401;28;47072;-64
2021/05/07 05:24:14;;;;;;;;;;;;;;;;;;2097899;28;45932;-64
2021/05/07 05:25:15;;;;;;;;;;;;;;;;;;2097764;28;45754;-64
2021/05/07 05:26:16;;;;;;;;;;;;;;;;;;2095306;28;46762;-64
2021/05/07 05:27:17;;;;;;;;;;;;;;;;;;2098245;28;44538;-63
2021/05/07 05:28:18;;;;;;;;;;;;;;;;;;2097584;28;44436;-64
2021/05/07 05:29:19;;;;;;;;;;;;;;;;;;2105923;28;45664;-64
2021/05/07 05:30:21;;;;;;;;;;;;;;;;;;2106199;28;45635;-63
2021/05/07 05:31:25;;;;;;;;;;;;;;;;;;2097579;28;44580;-63
2021/05/07 05:32:26;;;;;;;;;;;;;;;;;;2097801;28;44627;-64
2021/05/07 05:33:28;;;;;;;;;;;;;;;;;;2097835;28;46961;-63
2021/05/07 05:34:29;;;;;;;;;;;;;;;;;;2105806;28;45616;-63
2021/05/07 05:35:34;;;;;;;;;;;;;;;;;;2106019;28;46944;-64
2021/05/07 05:36:35;;;;;;;;;;;;;;;;;;2105945;28;43859;-64
2021/05/07 05:37:39;;;;;;;;;;;;;;;;;;2105571;28;47344;-64
2021/05/07 05:38:40;;;;;;;;;;;;;;;;;;2098174;28;45836;-64
2021/05/07 05:39:41;;;;;;;;;;;;;;;;;;2106086;28;44825;-64
2021/05/07 05:41:01;;;;;;;;;;;;;;;;;;2106175;28;42806;-64
2021/05/07 05:42:03;;;;;;;;;;;;;;;;;;2103404;28;46962;-64
2021/05/07 05:43:04;;;;;;;;;;;;;;;;;;2097512;28;42773;-64
2021/05/07 05:44:06;;;;;;;;;;;;;;;;;;2089493;28;43296;-64
2021/05/07 05:45:07;;;;;;;;;;;;;;;;;;2097630;28;43177;-64
2021/05/07 05:46:08;;;;;;;;;;;;;;;;;;2106127;28;44425;-64
2021/05/07 05:47:10;;;;;;;;;;;;;;;;;;2105732;28;45604;-64
2021/05/07 05:48:15;;;;;;;;;;;;;;;;;;2105961;28;44440;-63
2021/05/07 05:49:16;;;;;;;;;;;;;;;;;;2104913;28;46989;-65
2021/05/07 05:50:17;;;;;;;;;;;;;;;;;;2105930;28;42214;-63
2021/05/07 05:51:17;;;;;;;;;;;;;;;;;;2105824;28;45738;-64
2021/05/07 05:52:18;;;;;;;;;;;;;;;;;;2105945;28;46296;-64
2021/05/07 05:53:20;;;;;;;;;;;;;;;;;;2097611;28;44268;-64
2021/05/07 05:54:22;;;;;;;;;;;;;;;;;;2097880;28;46367;-64
2021/05/07 05:55:26;;;;;;;;;;;;;;;;;;2105788;28;45305;-64
2021/05/07 05:56:27;;;;;;;;;;;;;;;;;;2097986;28;44211;-64
2021/05/07 05:57:28;;;;;;;;;;;;;;;;;;2105729;28;44170;-65
2021/05/07 05:58:31;;;;;;;;;;;;;;;;;;2106091;28;39838;-63
2021/05/07 05:59:32;;;;;;;;;;;;;;;;;;2114318;28;43049;-64
2021/05/07 06:00:33;;;;;;;;;;;;;;;;;;2114298;28;46509;-63
2021/05/07 06:01:34;;;;;;;;;;;;;;;;;;2114447;28;45358;-64
2021/05/07 06:02:35;;;;;;;;;;;;;;;;;;2114203;28;42211;-63
2021/05/07 06:03:36;;;;;;;;;;;;;;;;;;2114688;28;44446;-64
2021/05/07 06:04:37;;;;;;;;;;;;;;;;;;2114319;28;47089;-63
2021/05/07 06:05:38;;;;;;;;;;;;;;;;;;2114403;28;46633;-63
2021/05/07 06:06:39;;;;;;;;;;;;;;;;;;2105590;28;43872;-63
2021/05/07 06:07:40;;;;;;;;;;;;;;;;;;2105988;28;46404;-64
2021/05/07 06:08:41;;;;;;;;;;;;;;;;;;2106107;28;45905;-63
2021/05/07 06:09:42;;;;;;;;;;;;;;;;;;2105952;28;46315;-64
2021/05/07 06:10:43;;;;;;;;;;;;;;;;;;2114139;28;45396;-64
2021/05/07 06:11:43;;;;;;;;;;;;;;;;;;2114140;28;46741;-64
2021/05/07 06:12:45;;;;;;;;;;;;;;;;;;2106419;28;45079;-65
2021/05/07 06:13:46;;;;;;;;;;;;;;;;;;2106728;28;46506;-64
2021/05/07 06:14:47;;;;;;;;;;;;;;;;;;2114709;28;43655;-66
2021/05/07 06:15:48;;;;;;;;;;;;;;;;;;2110295;28;44986;-64
2021/05/07 06:16:49;;;;;;;;;;;;;;;;;;2105568;28;47702;-63
2021/05/07 06:17:50;;;;;;;;;;;;;;;;;;2105841;28;44066;-64
2021/05/07 06:18:51;;;;;;;;;;;;;;;;;;2097865;28;45469;-65
2021/05/07 06:19:57;;;;;;;;;;;;;;;;;;2097711;28;44064;-64
2021/05/07 06:20:58;;;;;;;;;;;;;;;;;;2097310;28;45447;-64
2021/05/07 06:21:59;;;;;;;;;;;;;;;;;;2095363;28;42414;-64
2021/05/07 06:23:00;;;;;;;;;;;;;;;;;;2106002;28;43478;-64
2021/05/07 06:24:01;;;;;;;;;;;;;;;;;;2097866;28;44922;-63
2021/05/07 06:25:09;;;;;;;;;;;;;;;;;;2097978;28;45389;-65
2021/05/07 06:26:10;;;;;;;;;;;;;;;;;;2105003;28;45203;-64
2021/05/07 06:27:11;;;;;;;;;;;;;;;;;;2096827;28;45976;-66
2021/05/07 06:28:12;;;;;;;;;;;;;;;;;;2097580;28;45902;-66
2021/05/07 06:29:13;;;;;;;;;;;;;;;;;;2097363;28;47188;-65
2021/05/07 06:30:15;;;;;;;;;;;;;;;;;;2089345;28;45710;-64
2021/05/07 06:31:15;;;;;;;;;;;;;;;;;;2097539;28;44072;-65
2021/05/07 06:32:17;;;;;;;;;;;;;;;;;;2105784;28;47295;-67
2021/05/07 06:33:18;;;;;;;;;;;;;;;;;;2097925;28;45670;-65
2021/05/07 06:34:19;;;;;;;;;;;;;;;;;;2105753;28;44847;-65
2021/05/07 06:35:20;;;;;;;;;;;;;;;;;;2105506;28;47105;-66
2021/05/07 06:36:22;;;;;;;;;;;;;;;;;;2097296;28;46948;-66
2021/05/07 06:37:22;;;;;;;;;;;;;;;;;;2105452;28;46941;-66
2021/05/07 06:38:24;;;;;;;;;;;;;;;;;;2097406;28;45761;-66
2021/05/07 06:39:29;;;;;;;;;;;;;;;;;;2097188;28;46493;-65
2021/05/07 06:40:30;;;;;;;;;;;;;;;;;;2098017;28;45986;-65
2021/05/07 06:41:31;;;;;;;;;;;;;;;;;;2097402;28;45860;-66
2021/05/07 06:42:35;;;;;;;;;;;;;;;;;;2114164;28;47388;-66
2021/05/07 06:43:36;;;;;;;;;;;;;;;;;;2104976;28;46057;-65
2021/05/07 06:44:37;;;;;;;;;;;;;;;;;;2097334;28;46964;-66
2021/05/07 06:45:38;;;;;;;;;;;;;;;;;;2105366;28;48090;-65
2021/05/07 06:46:39;;;;;;;;;;;;;;;;;;2096981;28;45917;-65
2021/05/07 06:47:40;;;;;;;;;;;;;;;;;;2106093;28;43742;-66
2021/05/07 06:48:42;;;;;;;;;;;;;;;;;;2114036;28;42018;-66
2021/05/07 06:49:43;;;;;;;;;;;;;;;;;;2097472;28;41423;-66
2021/05/07 06:50:44;;;;;;;;;;;;;;;;;;2097294;28;45328;-66
2021/05/07 06:51:45;;;;;;;;;;;;;;;;;;2097779;28;46351;-65
2021/05/07 06:52:46;;;;;;;;;;;;;;;;;;2105552;28;44870;-66
2021/05/07 06:53:47;;;;;;;;;;;;;;;;;;2105824;28;44150;-65
2021/05/07 06:54:48;;;;;;;;;;;;;;;;;;2097269;28;43321;-66
2021/05/07 06:55:49;;;;;;;;;;;;;;;;;;2097547;28;44909;-66
2021/05/07 06:57:05;;;;;;;;;;;;;;;;;;2099266;28;44527;-66
2021/05/07 06:58:06;;;;;;;;;;;;;;;;;;2103636;28;44237;-66
2021/05/07 06:59:07;;;;;;;;;;;;;;;;;;2097228;28;44262;-66
2021/05/07 07:00:09;;;;;;;;;;;;;;;;;;2097183;28;43925;-66
2021/05/07 07:01:11;;;;;;;;;;;;;;;;;;2105724;28;42705;-66
2021/05/07 07:02:13;;;;;;;;;;;;;;;;;;2105133;28;44988;-66